メインページ
METAR-TAF:

METAR-TAF

空港 :

シカゴ, イリノイ州, アメリカ合衆国

シカゴ・オヘア国際空港

緯度: 41-58-47N, 経度: 087-54-16W, 海抜: 203m

現時点の気象観測

当レポートは35分前の14:01(UTC)に作成
の風 4kt
気温 4°C
湿度 87%
気圧 1015 hPa
視程: 6.4km
高度500ftの千切れ雲あり
高度6000ftの曇り

METAR: KORD 211401Z 18004KT 4SM BR BKN005 OVC060 04/02 A2996 RMK AO2 T00390022

時間: 08:36 (14:36 UTC)

予報

当レポートは2時間56分前の11:40(UTC)に作成
予報は21日の 12時(UTC)から 22日の 18時(UTC)まで有効
南東の風 4kt
視程: 9.7km
高度600ftの雲はほとんどない
高度3500ftの千切れ雲あり
21日の 1300時(UTC)から
南/南東の風 4kt
視程: 8.0km
高度500ftの曇り
21日の 13時(UTC)から 21日の 16時(UTC)まで一時的に
視程: 1.6km
高度400ftの曇り
21日の 1900時(UTC)から
の風 4kt
視程: 2.4km
高度500ftの曇り
小霧雨, 靄
21日の 21時(UTC)から 21日の 24時(UTC)まで一時的に
視程: 2.8km
高度300ftの曇り
小霧雨, 靄
22日の 0000時(UTC)から
東/南東の風 6kt
視程: 1.6km
高度300ftの曇り
小霧雨, 靄
22日の 1000時(UTC)から
東/南東の風 7kt
視程: 1.6km
高度400ftの曇り
にわか雨, 靄

TAF: KORD 211140Z 2112/2218 14004KT 6SM BR FEW006 BKN035 FM211300 15004KT 5SM BR OVC005 TEMPO 2113/2116 1SM BR OVC004 FM211900 10004KT 1 1/2SM -DZ BR OVC005 TEMPO 2121/2124 3/4SM -DZ BR OVC003 FM220000 11006KT 1SM -DZ BR OVC003 FM221000 12007KT 2SM SHRA BR OVC004

4,000以上の空港の気象観測と天気予報(METAR報とTAF報)

利用可能な観測所は地図上に黄色い丸と赤い丸で示す。

丸の上にカーソルを重ねると観測所名を参照できる。

次にクリックすると気象観測と天気予報を参照できる。

マップの切り替え:黒色「×」印の緑ボタンをクリックして拡大、「-」印の緑ボタンをクリックして縮小、緑色の三角印をクリックして隣りの地図に切り替え


METAR-TAF: